sensor_id;sensor_type;location;lat;lon;timestamp;pressure;altitude;pressure_sealevel;temperature;humidity
5500;BME280;2772;42.700;23.304;2022-09-14T00:01:12;95057.91;;;15.74;100.00
5500;BME280;2772;42.700;23.304;2022-09-14T00:03:38;95063.84;;;15.67;100.00
5500;BME280;2772;42.700;23.304;2022-09-14T00:06:07;95067.66;;;15.66;100.00
5500;BME280;2772;42.700;23.304;2022-09-14T00:08:35;95054.13;;;15.63;100.00
5500;BME280;2772;42.700;23.304;2022-09-14T00:11:04;95066.44;;;15.64;100.00
5500;BME280;2772;42.700;23.304;2022-09-14T00:13:31;95065.53;;;15.60;100.00
5500;BME280;2772;42.700;23.304;2022-09-14T00:16:02;95057.94;;;15.62;100.00
5500;BME280;2772;42.700;23.304;2022-09-14T00:18:32;95064.44;;;15.61;100.00
5500;BME280;2772;42.700;23.304;2022-09-14T00:21:00;95063.88;;;15.55;100.00
5500;BME280;2772;42.700;23.304;2022-09-14T00:23:26;95063.19;;;15.58;100.00
5500;BME280;2772;42.700;23.304;2022-09-14T00:25:53;95071.25;;;15.58;100.00
5500;BME280;2772;42.700;23.304;2022-09-14T00:28:21;95052.56;;;15.62;100.00
5500;BME280;2772;42.700;23.304;2022-09-14T00:30:47;95069.47;;;15.62;100.00
5500;BME280;2772;42.700;23.304;2022-09-14T00:33:14;95059.75;;;15.58;100.00
5500;BME280;2772;42.700;23.304;2022-09-14T00:35:42;95061.63;;;15.57;100.00
5500;BME280;2772;42.700;23.304;2022-09-14T00:38:09;95064.31;;;15.57;100.00
5500;BME280;2772;42.700;23.304;2022-09-14T00:40:36;95061.06;;;15.52;100.00
5500;BME280;2772;42.700;23.304;2022-09-14T00:43:07;95066.44;;;15.52;100.00
5500;BME280;2772;42.700;23.304;2022-09-14T00:45:39;95068.03;;;15.53;100.00
5500;BME280;2772;42.700;23.304;2022-09-14T00:48:06;95070.69;;;15.53;100.00
5500;BME280;2772;42.700;23.304;2022-09-14T00:50:33;95072.59;;;15.52;100.00
5500;BME280;2772;42.700;23.304;2022-09-14T00:53:01;95077.16;;;15.52;100.00
5500;BME280;2772;42.700;23.304;2022-09-14T00:55:29;95079.09;;;15.51;100.00
5500;BME280;2772;42.700;23.304;2022-09-14T00:57:56;95089.50;;;15.41;100.00
5500;BME280;2772;42.700;23.304;2022-09-14T01:00:26;95078.09;;;15.44;100.00
5500;BME280;2772;42.700;23.304;2022-09-14T01:02:53;95090.16;;;15.38;100.00
5500;BME280;2772;42.700;23.304;2022-09-14T01:05:23;95081.31;;;15.37;100.00
5500;BME280;2772;42.700;23.304;2022-09-14T01:08:26;95085.59;;;15.38;100.00
5500;BME280;2772;42.700;23.304;2022-09-14T01:11:11;95082.88;;;15.26;100.00
5500;BME280;2772;42.700;23.304;2022-09-14T01:13:47;95087.69;;;15.09;100.00
5500;BME280;2772;42.700;23.304;2022-09-14T01:16:24;95086.78;;;15.05;100.00
5500;BME280;2772;42.700;23.304;2022-09-14T01:18:57;95086.34;;;15.03;100.00
5500;BME280;2772;42.700;23.304;2022-09-14T01:21:27;95087.47;;;15.02;100.00
5500;BME280;2772;42.700;23.304;2022-09-14T01:24:03;95081.50;;;14.96;100.00
5500;BME280;2772;42.700;23.304;2022-09-14T01:26:43;95068.91;;;14.97;100.00
5500;BME280;2772;42.700;23.304;2022-09-14T01:29:17;95074.59;;;14.95;100.00
5500;BME280;2772;42.700;23.304;2022-09-14T01:31:49;95065.09;;;14.98;100.00
5500;BME280;2772;42.700;23.304;2022-09-14T01:34:24;95064.28;;;14.97;100.00
5500;BME280;2772;42.700;23.304;2022-09-14T01:36:55;95071.44;;;14.81;100.00
5500;BME280;2772;42.700;23.304;2022-09-14T01:39:23;95069.66;;;14.85;100.00
5500;BME280;2772;42.700;23.304;2022-09-14T01:41:51;95076.03;;;14.93;100.00
5500;BME280;2772;42.700;23.304;2022-09-14T01:44:23;95078.50;;;14.98;100.00
5500;BME280;2772;42.700;23.304;2022-09-14T01:46:53;95083.66;;;15.03;100.00
5500;BME280;2772;42.700;23.304;2022-09-14T01:49:24;95087.78;;;15.00;100.00
5500;BME280;2772;42.700;23.304;2022-09-14T01:51:56;95088.34;;;15.06;100.00
5500;BME280;2772;42.700;23.304;2022-09-14T01:54:26;95082.53;;;15.04;100.00
5500;BME280;2772;42.700;23.304;2022-09-14T01:57:02;95079.41;;;15.02;100.00
5500;BME280;2772;42.700;23.304;2022-09-14T01:59:34;95070.25;;;15.03;100.00
5500;BME280;2772;42.700;23.304;2022-09-14T02:02:06;95077.72;;;14.97;100.00
5500;BME280;2772;42.700;23.304;2022-09-14T02:04:40;95079.28;;;14.98;100.00
5500;BME280;2772;42.700;23.304;2022-09-14T02:07:10;95073.00;;;14.94;100.00
5500;BME280;2772;42.700;23.304;2022-09-14T02:09:37;95071.25;;;14.98;100.00
5500;BME280;2772;42.700;23.304;2022-09-14T02:12:05;95070.78;;;14.96;100.00
5500;BME280;2772;42.700;23.304;2022-09-14T02:14:34;95081.84;;;14.95;100.00
5500;BME280;2772;42.700;23.304;2022-09-14T02:17:01;95073.22;;;14.77;100.00
5500;BME280;2772;42.700;23.304;2022-09-14T02:19:31;95077.09;;;14.68;100.00
5500;BME280;2772;42.700;23.304;2022-09-14T02:22:01;95084.94;;;14.73;100.00
5500;BME280;2772;42.700;23.304;2022-09-14T02:24:28;95073.75;;;14.71;100.00
5500;BME280;2772;42.700;23.304;2022-09-14T02:26:56;95063.69;;;14.68;100.00
5500;BME280;2772;42.700;23.304;2022-09-14T02:29:24;95065.69;;;14.59;100.00
5500;BME280;2772;42.700;23.304;2022-09-14T02:32:00;95071.06;;;14.59;100.00
5500;BME280;2772;42.700;23.304;2022-09-14T02:34:36;95080.69;;;14.60;100.00
5500;BME280;2772;42.700;23.304;2022-09-14T02:37:10;95075.75;;;14.62;100.00
5500;BME280;2772;42.700;23.304;2022-09-14T02:39:48;95083.59;;;14.67;100.00
5500;BME280;2772;42.700;23.304;2022-09-14T02:42:22;95084.06;;;14.69;100.00
5500;BME280;2772;42.700;23.304;2022-09-14T02:44:57;95082.94;;;14.70;100.00
5500;BME280;2772;42.700;23.304;2022-09-14T02:47:33;95080.25;;;14.70;100.00
5500;BME280;2772;42.700;23.304;2022-09-14T02:50:10;95081.03;;;14.70;100.00
5500;BME280;2772;42.700;23.304;2022-09-14T02:52:46;95074.56;;;14.71;100.00
5500;BME280;2772;42.700;23.304;2022-09-14T02:55:18;95081.16;;;14.74;100.00
5500;BME280;2772;42.700;23.304;2022-09-14T02:57:58;95078.03;;;14.72;100.00
5500;BME280;2772;42.700;23.304;2022-09-14T03:00:26;95082.25;;;14.73;100.00
5500;BME280;2772;42.700;23.304;2022-09-14T03:02:55;95086.97;;;14.76;100.00
5500;BME280;2772;42.700;23.304;2022-09-14T03:05:22;95077.22;;;14.71;100.00
5500;BME280;2772;42.700;23.304;2022-09-14T03:07:49;95087.50;;;14.69;100.00
5500;BME280;2772;42.700;23.304;2022-09-14T03:10:15;95083.25;;;14.68;100.00
5500;BME280;2772;42.700;23.304;2022-09-14T03:12:42;95089.75;;;14.67;100.00
5500;BME280;2772;42.700;23.304;2022-09-14T03:15:09;95077.00;;;14.64;100.00
5500;BME280;2772;42.700;23.304;2022-09-14T03:17:36;95077.34;;;14.63;100.00
5500;BME280;2772;42.700;23.304;2022-09-14T03:20:05;95079.09;;;14.59;100.00
5500;BME280;2772;42.700;23.304;2022-09-14T03:22:32;95078.53;;;14.53;100.00
5500;BME280;2772;42.700;23.304;2022-09-14T03:24:58;95077.28;;;14.51;100.00
5500;BME280;2772;42.700;23.304;2022-09-14T03:27:25;95077.41;;;14.42;100.00
5500;BME280;2772;42.700;23.304;2022-09-14T03:29:52;95074.13;;;14.37;100.00
5500;BME280;2772;42.700;23.304;2022-09-14T03:32:19;95074.13;;;14.37;100.00
5500;BME280;2772;42.700;23.304;2022-09-14T03:34:46;95074.91;;;14.16;100.00
5500;BME280;2772;42.700;23.304;2022-09-14T03:37:14;95076.94;;;14.19;100.00
5500;BME280;2772;42.700;23.304;2022-09-14T03:39:41;95076.03;;;14.15;100.00
5500;BME280;2772;42.700;23.304;2022-09-14T03:42:08;95076.44;;;14.05;100.00
5500;BME280;2772;42.700;23.304;2022-09-14T03:44:35;95073.75;;;14.05;100.00
5500;BME280;2772;42.700;23.304;2022-09-14T03:47:01;95075.78;;;14.08;100.00
5500;BME280;2772;42.700;23.304;2022-09-14T03:49:28;95079.38;;;14.12;100.00
5500;BME280;2772;42.700;23.304;2022-09-14T03:51:55;95077.78;;;14.11;100.00
5500;BME280;2772;42.700;23.304;2022-09-14T03:54:23;95079.25;;;14.09;100.00
5500;BME280;2772;42.700;23.304;2022-09-14T03:56:51;95086.38;;;14.05;100.00
5500;BME280;2772;42.700;23.304;2022-09-14T03:59:18;95079.72;;;14.11;100.00
5500;BME280;2772;42.700;23.304;2022-09-14T04:01:45;95089.31;;;14.12;100.00
5500;BME280;2772;42.700;23.304;2022-09-14T04:04:12;95088.31;;;14.16;100.00
5500;BME280;2772;42.700;23.304;2022-09-14T04:06:39;95083.41;;;14.18;100.00
5500;BME280;2772;42.700;23.304;2022-09-14T04:09:06;95081.19;;;14.20;100.00
5500;BME280;2772;42.700;23.304;2022-09-14T04:11:34;95081.63;;;14.22;100.00
5500;BME280;2772;42.700;23.304;2022-09-14T04:14:03;95084.81;;;14.24;100.00
5500;BME280;2772;42.700;23.304;2022-09-14T04:16:31;95081.13;;;14.29;100.00
5500;BME280;2772;42.700;23.304;2022-09-14T04:18:58;95078.78;;;14.27;100.00
5500;BME280;2772;42.700;23.304;2022-09-14T04:21:25;95069.97;;;14.27;100.00
5500;BME280;2772;42.700;23.304;2022-09-14T04:23:53;95089.19;;;14.29;100.00
5500;BME280;2772;42.700;23.304;2022-09-14T04:26:22;95093.44;;;14.30;100.00
5500;BME280;2772;42.700;23.304;2022-09-14T04:28:50;95086.56;;;14.20;100.00
5500;BME280;2772;42.700;23.304;2022-09-14T04:31:17;95078.06;;;14.18;100.00
5500;BME280;2772;42.700;23.304;2022-09-14T04:33:44;95084.31;;;14.22;100.00
5500;BME280;2772;42.700;23.304;2022-09-14T04:36:16;95088.13;;;14.21;100.00
5500;BME280;2772;42.700;23.304;2022-09-14T04:38:44;95087.22;;;14.17;100.00
5500;BME280;2772;42.700;23.304;2022-09-14T04:41:12;95092.56;;;14.17;100.00
5500;BME280;2772;42.700;23.304;2022-09-14T04:43:40;95109.28;;;14.14;100.00
5500;BME280;2772;42.700;23.304;2022-09-14T04:46:12;95102.81;;;14.15;100.00
5500;BME280;2772;42.700;23.304;2022-09-14T04:48:39;95094.72;;;14.24;100.00
5500;BME280;2772;42.700;23.304;2022-09-14T04:51:07;95098.66;;;14.26;100.00
5500;BME280;2772;42.700;23.304;2022-09-14T04:53:36;95098.03;;;14.21;100.00
5500;BME280;2772;42.700;23.304;2022-09-14T04:56:05;95111.00;;;14.19;100.00
5500;BME280;2772;42.700;23.304;2022-09-14T04:58:34;95105.50;;;14.15;100.00
5500;BME280;2772;42.700;23.304;2022-09-14T05:01:05;95105.13;;;14.25;100.00
5500;BME280;2772;42.700;23.304;2022-09-14T05:03:34;95119.94;;;14.23;100.00
5500;BME280;2772;42.700;23.304;2022-09-14T05:06:04;95117.59;;;14.21;100.00
5500;BME280;2772;42.700;23.304;2022-09-14T05:08:32;95113.88;;;14.35;100.00
5500;BME280;2772;42.700;23.304;2022-09-14T05:11:01;95116.44;;;14.31;100.00
5500;BME280;2772;42.700;23.304;2022-09-14T05:13:28;95119.69;;;14.37;100.00
5500;BME280;2772;42.700;23.304;2022-09-14T05:15:54;95126.94;;;14.36;100.00
5500;BME280;2772;42.700;23.304;2022-09-14T05:18:21;95126.16;;;14.36;100.00
5500;BME280;2772;42.700;23.304;2022-09-14T05:20:49;95127.06;;;14.40;100.00
5500;BME280;2772;42.700;23.304;2022-09-14T05:23:16;95119.34;;;14.38;100.00
5500;BME280;2772;42.700;23.304;2022-09-14T05:25:43;95133.81;;;14.46;100.00
5500;BME280;2772;42.700;23.304;2022-09-14T05:28:10;95129.41;;;14.41;100.00
5500;BME280;2772;42.700;23.304;2022-09-14T05:30:38;95134.00;;;14.41;100.00
5500;BME280;2772;42.700;23.304;2022-09-14T05:33:06;95136.22;;;14.39;100.00
5500;BME280;2772;42.700;23.304;2022-09-14T05:35:33;95132.69;;;14.47;100.00
5500;BME280;2772;42.700;23.304;2022-09-14T05:38:01;95139.19;;;14.58;100.00
5500;BME280;2772;42.700;23.304;2022-09-14T05:40:27;95138.75;;;14.68;100.00
5500;BME280;2772;42.700;23.304;2022-09-14T05:42:56;95131.78;;;14.75;100.00
5500;BME280;2772;42.700;23.304;2022-09-14T05:45:22;95141.03;;;14.78;100.00
5500;BME280;2772;42.700;23.304;2022-09-14T05:47:49;95141.97;;;14.94;100.00
5500;BME280;2772;42.700;23.304;2022-09-14T05:50:16;95154.06;;;15.00;100.00
5500;BME280;2772;42.700;23.304;2022-09-14T05:52:43;95154.75;;;15.09;100.00
5500;BME280;2772;42.700;23.304;2022-09-14T05:55:11;95152.94;;;15.13;100.00
5500;BME280;2772;42.700;23.304;2022-09-14T05:57:38;95156.44;;;15.25;100.00
5500;BME280;2772;42.700;23.304;2022-09-14T06:00:05;95155.13;;;15.31;100.00
5500;BME280;2772;42.700;23.304;2022-09-14T06:02:32;95163.53;;;15.42;100.00
5500;BME280;2772;42.700;23.304;2022-09-14T06:04:59;95151.63;;;15.31;100.00
5500;BME280;2772;42.700;23.304;2022-09-14T06:07:26;95155.66;;;15.37;100.00
5500;BME280;2772;42.700;23.304;2022-09-14T06:09:53;95152.34;;;15.40;100.00
5500;BME280;2772;42.700;23.304;2022-09-14T06:12:21;95153.47;;;15.51;100.00
5500;BME280;2772;42.700;23.304;2022-09-14T06:14:48;95143.75;;;15.46;100.00
5500;BME280;2772;42.700;23.304;2022-09-14T06:17:15;95146.88;;;15.48;100.00
5500;BME280;2772;42.700;23.304;2022-09-14T06:19:42;95149.31;;;15.41;100.00
5500;BME280;2772;42.700;23.304;2022-09-14T06:22:09;95145.53;;;15.42;100.00
5500;BME280;2772;42.700;23.304;2022-09-14T06:24:36;95145.19;;;15.68;100.00
5500;BME280;2772;42.700;23.304;2022-09-14T06:27:03;95150.09;;;15.78;100.00
5500;BME280;2772;42.700;23.304;2022-09-14T06:29:32;95153.78;;;15.85;100.00
5500;BME280;2772;42.700;23.304;2022-09-14T06:31:59;95146.50;;;15.98;100.00
5500;BME280;2772;42.700;23.304;2022-09-14T06:34:26;95147.59;;;16.09;100.00
5500;BME280;2772;42.700;23.304;2022-09-14T06:36:52;95143.84;;;16.26;100.00
5500;BME280;2772;42.700;23.304;2022-09-14T06:39:19;95143.25;;;16.32;100.00
5500;BME280;2772;42.700;23.304;2022-09-14T06:41:46;95143.78;;;16.38;100.00
5500;BME280;2772;42.700;23.304;2022-09-14T06:44:13;95146.41;;;16.34;100.00
5500;BME280;2772;42.700;23.304;2022-09-14T06:46:41;95144.91;;;16.49;100.00
5500;BME280;2772;42.700;23.304;2022-09-14T06:49:12;95148.78;;;16.63;100.00
5500;BME280;2772;42.700;23.304;2022-09-14T06:51:44;95140.13;;;16.70;100.00
5500;BME280;2772;42.700;23.304;2022-09-14T06:54:12;95146.63;;;16.69;100.00
5500;BME280;2772;42.700;23.304;2022-09-14T06:56:40;95160.31;;;16.64;100.00
5500;BME280;2772;42.700;23.304;2022-09-14T06:59:09;95160.44;;;16.67;100.00
5500;BME280;2772;42.700;23.304;2022-09-14T07:01:37;95153.75;;;16.77;100.00
5500;BME280;2772;42.700;23.304;2022-09-14T07:04:05;95159.34;;;16.84;100.00
5500;BME280;2772;42.700;23.304;2022-09-14T07:06:38;95156.69;;;16.99;100.00
5500;BME280;2772;42.700;23.304;2022-09-14T07:09:05;95157.19;;;17.05;100.00
5500;BME280;2772;42.700;23.304;2022-09-14T07:11:32;95152.09;;;17.15;100.00
5500;BME280;2772;42.700;23.304;2022-09-14T07:13:59;95150.28;;;17.19;100.00
5500;BME280;2772;42.700;23.304;2022-09-14T07:16:27;95144.28;;;17.26;100.00
5500;BME280;2772;42.700;23.304;2022-09-14T07:18:55;95143.78;;;17.36;100.00
5500;BME280;2772;42.700;23.304;2022-09-14T07:21:24;95139.34;;;17.43;100.00
5500;BME280;2772;42.700;23.304;2022-09-14T07:23:51;95150.22;;;17.47;100.00
5500;BME280;2772;42.700;23.304;2022-09-14T07:26:21;95154.13;;;17.50;100.00
5500;BME280;2772;42.700;23.304;2022-09-14T07:28:51;95143.81;;;17.52;100.00
5500;BME280;2772;42.700;23.304;2022-09-14T07:31:20;95142.38;;;17.42;100.00
5500;BME280;2772;42.700;23.304;2022-09-14T07:33:47;95137.97;;;17.50;100.00
5500;BME280;2772;42.700;23.304;2022-09-14T07:36:17;95138.91;;;17.57;100.00
5500;BME280;2772;42.700;23.304;2022-09-14T07:38:45;95139.97;;;17.53;100.00
5500;BME280;2772;42.700;23.304;2022-09-14T07:41:12;95135.44;;;17.57;100.00
5500;BME280;2772;42.700;23.304;2022-09-14T07:43:39;95136.72;;;17.63;100.00
5500;BME280;2772;42.700;23.304;2022-09-14T07:46:06;95141.94;;;17.71;100.00
5500;BME280;2772;42.700;23.304;2022-09-14T07:48:34;95133.00;;;17.83;100.00
5500;BME280;2772;42.700;23.304;2022-09-14T07:51:03;95142.16;;;17.97;100.00
5500;BME280;2772;42.700;23.304;2022-09-14T07:53:30;95135.88;;;18.09;100.00
5500;BME280;2772;42.700;23.304;2022-09-14T07:56:00;95137.78;;;18.08;100.00
5500;BME280;2772;42.700;23.304;2022-09-14T07:58:28;95139.50;;;18.16;100.00
5500;BME280;2772;42.700;23.304;2022-09-14T08:00:58;95149.22;;;18.21;100.00
5500;BME280;2772;42.700;23.304;2022-09-14T08:03:25;95142.75;;;18.25;100.00
5500;BME280;2772;42.700;23.304;2022-09-14T08:05:57;95147.16;;;18.33;100.00
5500;BME280;2772;42.700;23.304;2022-09-14T08:08:27;95143.16;;;18.43;100.00
5500;BME280;2772;42.700;23.304;2022-09-14T08:10:54;95152.13;;;18.47;100.00
5500;BME280;2772;42.700;23.304;2022-09-14T08:13:25;95139.03;;;18.49;100.00
5500;BME280;2772;42.700;23.304;2022-09-14T08:15:51;95145.31;;;18.53;100.00
5500;BME280;2772;42.700;23.304;2022-09-14T08:18:18;95138.22;;;18.64;100.00
5500;BME280;2772;42.700;23.304;2022-09-14T08:20:45;95128.97;;;18.65;100.00
5500;BME280;2772;42.700;23.304;2022-09-14T08:23:12;95127.91;;;18.69;100.00
5500;BME280;2772;42.700;23.304;2022-09-14T08:25:38;95133.44;;;18.76;100.00
5500;BME280;2772;42.700;23.304;2022-09-14T08:28:05;95134.63;;;18.79;100.00
5500;BME280;2772;42.700;23.304;2022-09-14T08:30:33;95134.34;;;18.84;100.00
5500;BME280;2772;42.700;23.304;2022-09-14T08:33:00;95129.84;;;18.91;100.00
5500;BME280;2772;42.700;23.304;2022-09-14T08:35:27;95124.88;;;18.93;100.00
5500;BME280;2772;42.700;23.304;2022-09-14T08:37:54;95126.16;;;19.00;100.00
5500;BME280;2772;42.700;23.304;2022-09-14T08:40:20;95128.22;;;19.06;100.00
5500;BME280;2772;42.700;23.304;2022-09-14T08:42:48;95119.50;;;19.16;100.00
5500;BME280;2772;42.700;23.304;2022-09-14T08:45:17;95121.84;;;19.18;100.00
5500;BME280;2772;42.700;23.304;2022-09-14T08:47:45;95118.06;;;19.22;100.00
5500;BME280;2772;42.700;23.304;2022-09-14T08:50:15;95116.22;;;19.26;100.00
5500;BME280;2772;42.700;23.304;2022-09-14T08:52:45;95113.25;;;19.31;100.00
5500;BME280;2772;42.700;23.304;2022-09-14T08:55:23;95114.53;;;19.41;100.00
5500;BME280;2772;42.700;23.304;2022-09-14T08:57:58;95115.44;;;19.48;100.00
5500;BME280;2772;42.700;23.304;2022-09-14T09:00:33;95111.00;;;19.59;100.00
5500;BME280;2772;42.700;23.304;2022-09-14T09:03:25;95109.56;;;19.69;100.00
5500;BME280;2772;42.700;23.304;2022-09-14T09:06:02;95100.06;;;19.78;100.00
5500;BME280;2772;42.700;23.304;2022-09-14T09:08:35;95108.28;;;19.85;99.45
5500;BME280;2772;42.700;23.304;2022-09-14T09:11:07;95108.00;;;19.94;99.90
5500;BME280;2772;42.700;23.304;2022-09-14T09:13:37;95109.97;;;19.97;98.00
5500;BME280;2772;42.700;23.304;2022-09-14T09:16:07;95100.88;;;20.08;96.84
5500;BME280;2772;42.700;23.304;2022-09-14T09:18:40;95095.19;;;20.13;96.39
5500;BME280;2772;42.700;23.304;2022-09-14T09:21:12;95086.03;;;20.25;96.74
5500;BME280;2772;42.700;23.304;2022-09-14T09:23:41;95093.47;;;20.28;96.48
5500;BME280;2772;42.700;23.304;2022-09-14T09:26:15;95093.16;;;20.36;95.47
5500;BME280;2772;42.700;23.304;2022-09-14T09:28:46;95091.31;;;20.44;94.51
5500;BME280;2772;42.700;23.304;2022-09-14T09:31:14;95084.41;;;20.50;95.80
5500;BME280;2772;42.700;23.304;2022-09-14T09:33:47;95088.75;;;20.55;93.79
5500;BME280;2772;42.700;23.304;2022-09-14T09:36:15;95095.38;;;20.61;92.42
5500;BME280;2772;42.700;23.304;2022-09-14T09:38:42;95102.03;;;20.67;92.67
5500;BME280;2772;42.700;23.304;2022-09-14T09:41:13;95094.31;;;20.69;92.08
5500;BME280;2772;42.700;23.304;2022-09-14T09:43:59;95086.63;;;20.74;92.05
5500;BME280;2772;42.700;23.304;2022-09-14T09:46:29;95077.81;;;20.81;91.59
5500;BME280;2772;42.700;23.304;2022-09-14T09:48:58;95071.69;;;20.87;90.31
5500;BME280;2772;42.700;23.304;2022-09-14T09:51:29;95073.75;;;20.97;91.34
5500;BME280;2772;42.700;23.304;2022-09-14T09:54:01;95074.59;;;21.05;90.55
5500;BME280;2772;42.700;23.304;2022-09-14T09:56:33;95069.25;;;21.12;88.62
5500;BME280;2772;42.700;23.304;2022-09-14T09:59:01;95073.97;;;21.18;88.89
5500;BME280;2772;42.700;23.304;2022-09-14T10:01:31;95064.00;;;21.29;90.41
5500;BME280;2772;42.700;23.304;2022-09-14T10:04:04;95066.38;;;21.38;87.97
5500;BME280;2772;42.700;23.304;2022-09-14T10:06:31;95057.47;;;21.41;88.19
5500;BME280;2772;42.700;23.304;2022-09-14T10:09:12;95048.63;;;21.47;86.60
5500;BME280;2772;42.700;23.304;2022-09-14T10:11:39;95044.81;;;21.55;86.37
5500;BME280;2772;42.700;23.304;2022-09-14T10:14:21;95040.94;;;21.56;84.49
5500;BME280;2772;42.700;23.304;2022-09-14T10:16:49;95037.13;;;21.64;85.16
5500;BME280;2772;42.700;23.304;2022-09-14T10:19:21;95037.94;;;21.72;84.85
5500;BME280;2772;42.700;23.304;2022-09-14T10:22:02;95036.88;;;21.80;83.87
5500;BME280;2772;42.700;23.304;2022-09-14T10:24:31;95024.94;;;21.91;82.80
5500;BME280;2772;42.700;23.304;2022-09-14T10:26:58;95029.63;;;22.02;81.83
5500;BME280;2772;42.700;23.304;2022-09-14T10:29:33;95032.75;;;22.07;80.87
5500;BME280;2772;42.700;23.304;2022-09-14T10:32:09;95023.50;;;22.19;80.13
5500;BME280;2772;42.700;23.304;2022-09-14T10:34:39;95025.53;;;22.36;79.01
5500;BME280;2772;42.700;23.304;2022-09-14T10:37:14;95023.19;;;22.41;78.02
5500;BME280;2772;42.700;23.304;2022-09-14T10:39:48;95027.47;;;22.46;78.35
5500;BME280;2772;42.700;23.304;2022-09-14T10:42:25;95025.59;;;22.53;77.46
5500;BME280;2772;42.700;23.304;2022-09-14T10:45:03;95024.47;;;22.65;77.91
5500;BME280;2772;42.700;23.304;2022-09-14T10:47:51;95014.78;;;22.71;76.88
5500;BME280;2772;42.700;23.304;2022-09-14T10:50:35;95006.63;;;22.81;77.82
5500;BME280;2772;42.700;23.304;2022-09-14T10:53:17;95008.19;;;22.89;74.80
5500;BME280;2772;42.700;23.304;2022-09-14T10:55:52;95011.31;;;22.98;73.73
5500;BME280;2772;42.700;23.304;2022-09-14T10:58:41;95006.28;;;23.07;63.70
5500;BME280;2772;42.700;23.304;2022-09-14T11:01:26;95001.25;;;23.16;66.16
5500;BME280;2772;42.700;23.304;2022-09-14T11:04:08;95002.78;;;23.28;57.43
5500;BME280;2772;42.700;23.304;2022-09-14T11:06:47;95006.72;;;23.34;55.00
5500;BME280;2772;42.700;23.304;2022-09-14T11:09:22;95007.06;;;23.54;51.39
5500;BME280;2772;42.700;23.304;2022-09-14T11:11:57;95008.97;;;23.67;50.83
5500;BME280;2772;42.700;23.304;2022-09-14T11:14:41;94995.72;;;23.80;49.92
5500;BME280;2772;42.700;23.304;2022-09-14T11:17:33;95005.81;;;23.90;49.15
5500;BME280;2772;42.700;23.304;2022-09-14T11:20:08;95002.69;;;23.98;50.03
5500;BME280;2772;42.700;23.304;2022-09-14T11:22:46;95006.56;;;24.11;49.39
5500;BME280;2772;42.700;23.304;2022-09-14T11:25:17;95005.72;;;24.25;47.94
5500;BME280;2772;42.700;23.304;2022-09-14T11:27:50;94989.38;;;24.32;48.40
5500;BME280;2772;42.700;23.304;2022-09-14T11:30:19;94991.22;;;24.45;48.67
5500;BME280;2772;42.700;23.304;2022-09-14T11:32:49;94986.91;;;24.55;47.48
5500;BME280;2772;42.700;23.304;2022-09-14T11:35:21;94980.66;;;24.58;47.42
5500;BME280;2772;42.700;23.304;2022-09-14T11:37:54;94974.00;;;24.62;46.16
5500;BME280;2772;42.700;23.304;2022-09-14T11:40:26;94977.06;;;24.75;45.70
5500;BME280;2772;42.700;23.304;2022-09-14T11:42:57;94959.59;;;24.72;45.70
5500;BME280;2772;42.700;23.304;2022-09-14T11:45:29;94973.53;;;24.78;46.45
5500;BME280;2772;42.700;23.304;2022-09-14T11:48:03;94966.56;;;24.77;47.05
5500;BME280;2772;42.700;23.304;2022-09-14T11:50:32;94964.97;;;24.83;47.56
5500;BME280;2772;42.700;23.304;2022-09-14T11:53:08;94970.41;;;24.83;47.11
5500;BME280;2772;42.700;23.304;2022-09-14T11:55:36;94972.75;;;24.81;47.94
5500;BME280;2772;42.700;23.304;2022-09-14T11:58:17;94967.59;;;24.93;46.51
5500;BME280;2772;42.700;23.304;2022-09-14T12:01:00;94960.59;;;24.92;46.40
5500;BME280;2772;42.700;23.304;2022-09-14T12:04:03;94964.84;;;25.01;46.18
5500;BME280;2772;42.700;23.304;2022-09-14T12:07:03;94954.34;;;24.99;46.36
5500;BME280;2772;42.700;23.304;2022-09-14T12:09:50;94952.72;;;25.05;47.28
5500;BME280;2772;42.700;23.304;2022-09-14T12:12:33;94958.06;;;25.19;47.76
5500;BME280;2772;42.700;23.304;2022-09-14T12:18:20;94967.72;;;25.31;45.06
5500;BME280;2772;42.700;23.304;2022-09-14T12:20:48;94968.88;;;25.33;44.99
5500;BME280;2772;42.700;23.304;2022-09-14T12:23:28;94965.31;;;25.33;45.04
5500;BME280;2772;42.700;23.304;2022-09-14T12:26:27;94961.06;;;25.35;46.35
5500;BME280;2772;42.700;23.304;2022-09-14T12:29:00;94959.06;;;25.39;47.26
5500;BME280;2772;42.700;23.304;2022-09-14T12:31:38;94955.97;;;25.37;47.84
5500;BME280;2772;42.700;23.304;2022-09-14T12:34:25;94951.59;;;25.47;47.31
5500;BME280;2772;42.700;23.304;2022-09-14T12:42:54;94947.22;;;25.56;48.20
5500;BME280;2772;42.700;23.304;2022-09-14T12:45:49;94947.91;;;25.64;47.94
5500;BME280;2772;42.700;23.304;2022-09-14T12:48:53;94940.75;;;25.77;47.50
5500;BME280;2772;42.700;23.304;2022-09-14T12:51:31;94945.78;;;25.82;47.79
5500;BME280;2772;42.700;23.304;2022-09-14T12:54:08;94949.19;;;25.89;48.61
5500;BME280;2772;42.700;23.304;2022-09-14T12:56:53;94937.91;;;25.87;49.14
5500;BME280;2772;42.700;23.304;2022-09-14T12:59:30;94941.31;;;25.95;48.47
5500;BME280;2772;42.700;23.304;2022-09-14T13:02:15;94948.34;;;25.99;48.91
5500;BME280;2772;42.700;23.304;2022-09-14T13:04:44;94947.44;;;26.06;48.81
5500;BME280;2772;42.700;23.304;2022-09-14T13:07:13;94954.78;;;26.12;48.35
5500;BME280;2772;42.700;23.304;2022-09-14T13:09:45;94962.09;;;26.22;48.44
5500;BME280;2772;42.700;23.304;2022-09-14T13:12:14;94947.28;;;26.20;49.55
5500;BME280;2772;42.700;23.304;2022-09-14T13:14:52;94955.06;;;26.21;49.77
5500;BME280;2772;42.700;23.304;2022-09-14T13:17:19;94954.63;;;26.26;49.29
5500;BME280;2772;42.700;23.304;2022-09-14T13:19:53;94953.34;;;26.34;50.45
5500;BME280;2772;42.700;23.304;2022-09-14T13:22:21;94946.34;;;26.33;50.86
5500;BME280;2772;42.700;23.304;2022-09-14T13:24:49;94948.63;;;26.38;50.66
5500;BME280;2772;42.700;23.304;2022-09-14T13:27:21;94952.84;;;26.43;51.03
5500;BME280;2772;42.700;23.304;2022-09-14T13:29:59;94942.22;;;26.48;50.11
5500;BME280;2772;42.700;23.304;2022-09-14T13:32:26;94939.13;;;26.46;50.27